TimeCST,TemperatureF,Dew PointF,Humidity,Sea Level PressureIn,VisibilityMPH,Wind Direction,Wind SpeedMPH,Gust SpeedMPH,PrecipitationIn,Events,Conditions,WindDirDegrees,DateUTC
12:13 AM,6.8,1.4,79,30.19,10.0,WNW,9.2,-,N/A,,Clear,300,2014-02-23 06:13:00
12:34 AM,6.8,1.4,79,30.20,10.0,WNW,9.2,-,N/A,,Clear,300,2014-02-23 06:34:00
12:54 AM,6.8,1.4,79,30.20,10.0,WNW,9.2,-,N/A,,Clear,290,2014-02-23 06:54:00
1:13 AM,6.8,-0.4,72,30.20,10.0,West,8.1,-,N/A,,Clear,280,2014-02-23 07:13:00
1:33 AM,6.8,1.4,79,30.20,10.0,West,9.2,-,N/A,,Clear,280,2014-02-23 07:33:00
1:54 AM,5.0,-0.4,78,30.21,10.0,West,10.4,-,N/A,,Clear,280,2014-02-23 07:54:00
2:14 AM,6.8,1.4,79,30.21,10.0,West,11.5,-,N/A,,Clear,280,2014-02-23 08:14:00
2:33 AM,6.8,1.4,79,30.21,10.0,WNW,10.4,-,N/A,,Clear,290,2014-02-23 08:33:00
2:54 AM,5.0,-0.4,78,30.20,10.0,West,9.2,-,N/A,,Clear,280,2014-02-23 08:54:00
3:13 AM,6.8,-0.4,72,30.21,10.0,West,9.2,-,N/A,,Clear,280,2014-02-23 09:13:00
3:33 AM,5.0,-0.4,78,30.21,10.0,WNW,10.4,-,N/A,,Clear,290,2014-02-23 09:33:00
3:53 AM,5.0,-0.4,78,30.21,10.0,West,8.1,-,N/A,,Clear,280,2014-02-23 09:53:00
4:13 AM,3.2,-0.4,85,30.21,10.0,West,8.1,-,N/A,,Clear,270,2014-02-23 10:13:00
4:33 AM,3.2,-0.4,85,30.22,10.0,West,9.2,-,N/A,,Clear,280,2014-02-23 10:33:00
4:54 AM,3.2,-0.4,85,30.22,10.0,WNW,9.2,-,N/A,,Clear,290,2014-02-23 10:54:00
5:14 AM,3.2,-0.4,85,30.23,10.0,WNW,9.2,-,N/A,,Clear,290,2014-02-23 11:14:00
5:33 AM,3.2,-2.2,78,30.23,10.0,West,10.4,-,N/A,,Clear,280,2014-02-23 11:33:00
5:53 AM,3.2,-0.4,85,30.23,10.0,West,9.2,-,N/A,,Clear,280,2014-02-23 11:53:00
6:13 AM,3.2,-2.2,78,30.24,10.0,WNW,9.2,-,N/A,,Clear,290,2014-02-23 12:13:00
6:33 AM,3.2,-2.2,78,30.24,10.0,West,8.1,-,N/A,,Clear,280,2014-02-23 12:33:00
6:53 AM,3.2,-2.2,78,30.25,10.0,West,8.1,-,N/A,,Clear,280,2014-02-23 12:53:00
7:13 AM,3.2,-2.2,78,30.25,10.0,West,9.2,-,N/A,,Clear,270,2014-02-23 13:13:00
7:33 AM,3.2,-2.2,78,30.25,10.0,West,10.4,-,N/A,,Clear,280,2014-02-23 13:33:00
7:53 AM,3.2,-2.2,78,30.26,10.0,WNW,10.4,-,N/A,,Clear,290,2014-02-23 13:53:00
8:14 AM,5.0,-0.4,78,30.26,10.0,WNW,10.4,-,N/A,,Clear,290,2014-02-23 14:14:00
8:34 AM,6.8,-0.4,72,30.27,10.0,West,12.7,-,N/A,,Clear,280,2014-02-23 14:34:00
8:53 AM,8.6,1.4,73,30.27,10.0,WNW,13.8,-,N/A,,Clear,290,2014-02-23 14:53:00
9:13 AM,10.4,1.4,67,30.27,10.0,WNW,13.8,19.6,N/A,,Clear,300,2014-02-23 15:13:00
9:33 AM,10.4,3.2,73,30.28,10.0,NW,17.3,21.9,N/A,,Clear,310,2014-02-23 15:33:00
9:53 AM,12.2,3.2,67,30.28,10.0,WNW,13.8,-,N/A,,Clear,300,2014-02-23 15:53:00
10:14 AM,12.2,5.0,73,30.29,10.0,NW,16.1,-,N/A,,Clear,310,2014-02-23 16:14:00
10:34 AM,15.8,5.0,62,30.29,10.0,NW,16.1,-,N/A,,Clear,310,2014-02-23 16:34:00
10:54 AM,15.8,5.0,62,30.29,10.0,NW,20.7,-,N/A,,Clear,310,2014-02-23 16:54:00
11:13 AM,15.8,6.8,68,30.29,10.0,WNW,17.3,-,N/A,,Clear,300,2014-02-23 17:13:00
11:33 AM,17.6,6.8,63,30.29,10.0,NW,16.1,-,N/A,,Clear,310,2014-02-23 17:33:00
11:53 AM,17.6,6.8,63,30.30,10.0,WNW,16.1,-,N/A,,Clear,290,2014-02-23 17:53:00
12:14 PM,19.4,6.8,58,30.29,10.0,NW,17.3,23.0,N/A,,Clear,320,2014-02-23 18:14:00
12:33 PM,19.4,6.8,58,30.29,10.0,NW,16.1,24.2,N/A,,Clear,320,2014-02-23 18:33:00
12:53 PM,19.4,8.6,63,30.28,10.0,WNW,19.6,25.3,N/A,,Clear,300,2014-02-23 18:53:00
1:14 PM,21.2,6.8,54,30.28,10.0,NW,20.7,-,N/A,,Clear,310,2014-02-23 19:14:00
1:33 PM,21.2,8.6,58,30.28,10.0,WNW,21.9,-,N/A,,Clear,300,2014-02-23 19:33:00
1:53 PM,21.2,8.6,58,30.27,10.0,NW,19.6,-,N/A,,Clear,310,2014-02-23 19:53:00
2:13 PM,21.2,8.6,58,30.27,10.0,WNW,19.6,25.3,N/A,,Clear,300,2014-02-23 20:13:00
2:34 PM,21.2,8.6,58,30.27,10.0,WNW,19.6,-,N/A,,Clear,300,2014-02-23 20:34:00
2:53 PM,23.0,8.6,54,30.27,10.0,WNW,18.4,24.2,N/A,,Clear,300,2014-02-23 20:53:00
3:13 PM,21.2,8.6,58,30.27,10.0,NW,21.9,-,N/A,,Clear,320,2014-02-23 21:13:00
3:33 PM,21.2,8.6,58,30.28,10.0,NW,19.6,-,N/A,,Clear,310,2014-02-23 21:33:00
3:54 PM,21.2,8.6,58,30.28,10.0,NW,17.3,24.2,N/A,,Clear,320,2014-02-23 21:54:00
4:14 PM,21.2,8.6,58,30.28,10.0,NW,18.4,-,N/A,,Clear,320,2014-02-23 22:14:00
4:33 PM,21.2,8.6,58,30.28,10.0,NW,18.4,21.9,N/A,,Clear,310,2014-02-23 22:33:00
4:53 PM,21.2,8.6,58,30.28,10.0,NW,16.1,-,N/A,,Clear,310,2014-02-23 22:53:00
5:13 PM,21.2,8.6,58,30.28,10.0,NW,12.7,-,N/A,,Clear,320,2014-02-23 23:13:00
5:34 PM,19.4,8.6,63,30.28,10.0,NW,15.0,-,N/A,,Clear,310,2014-02-23 23:34:00
5:54 PM,17.6,8.6,68,30.29,10.0,NW,11.5,-,N/A,,Clear,310,2014-02-23 23:54:00
6:13 PM,17.6,8.6,68,30.29,10.0,NW,11.5,-,N/A,,Clear,320,2014-02-24 00:13:00
6:33 PM,15.8,8.6,73,30.30,10.0,NW,10.4,-,N/A,,Clear,320,2014-02-24 00:33:00
6:54 PM,15.8,6.8,68,30.30,10.0,NW,13.8,-,N/A,,Clear,320,2014-02-24 00:54:00
7:13 PM,14.0,6.8,73,30.31,10.0,NNW,11.5,-,N/A,,Clear,330,2014-02-24 01:13:00
7:33 PM,14.0,6.8,73,30.31,10.0,NNW,11.5,-,N/A,,Clear,330,2014-02-24 01:33:00
7:54 PM,12.2,5.0,73,30.32,10.0,NW,12.7,-,N/A,,Clear,320,2014-02-24 01:54:00
8:13 PM,12.2,5.0,73,30.32,10.0,NW,11.5,-,N/A,,Clear,320,2014-02-24 02:13:00
8:33 PM,12.2,3.2,67,30.33,10.0,NW,11.5,-,N/A,,Clear,320,2014-02-24 02:33:00
8:53 PM,10.4,3.2,73,30.33,10.0,NW,10.4,-,N/A,,Clear,310,2014-02-24 02:53:00
9:14 PM,10.4,3.2,73,30.34,10.0,NW,10.4,-,N/A,,Clear,320,2014-02-24 03:14:00
9:33 PM,8.6,3.2,79,30.34,10.0,NW,9.2,-,N/A,,Clear,320,2014-02-24 03:33:00
9:53 PM,8.6,3.2,79,30.34,10.0,NW,15.0,-,N/A,,Clear,320,2014-02-24 03:53:00
10:13 PM,8.6,1.4,73,30.34,10.0,NW,13.8,-,N/A,,Clear,320,2014-02-24 04:13:00
10:33 PM,8.6,1.4,73,30.34,10.0,NW,12.7,-,N/A,,Clear,320,2014-02-24 04:33:00
10:53 PM,8.6,1.4,73,30.34,10.0,NW,16.1,-,N/A,,Clear,310,2014-02-24 04:53:00
11:13 PM,8.6,-0.4,67,30.34,10.0,NW,15.0,-,N/A,,Clear,310,2014-02-24 05:13:00
11:34 PM,6.8,-0.4,72,30.34,10.0,NW,12.7,-,N/A,,Clear,310,2014-02-24 05:34:00
11:53 PM,6.8,-0.4,72,30.34,10.0,WNW,8.1,-,N/A,,Clear,300,2014-02-24 05:53:00